Sevilla La Nueva, Spain
Current Conditions -  °F | °C
As of 6:00 PM on Friday 24 Oct 2014 (Local Time) from LEVS Reporting Station
Clear Clear  
Wind Chill: 81°   Ceiling: Unl
Heat Index: 81°   Visibility: 6mi
Dew Point: 39°   Wind: 6mph
Humidity: 23%   Direction: 30°NNE
Pressure: 30.09"   Gusts: NA
Location:  40.35°N, 4.03°W
Report Text: LEVS 241600Z 03005KT 330V090 CAVOK 27/04 Q1019
Loading
Personal Weather Stations






























Interactive Weather Map New forecast layout! Learn more

10-Day Weather Forecast

Advertisements
Track Severe Weather on mobile